sensor_id;sensor_type;location;lat;lon;timestamp;P1;durP1;ratioP1;P2;durP2;ratioP2
2546;SDS011;1283;47.982;7.834;2024-03-17T00:02:20;3.13;;;1.80;;
2546;SDS011;1283;47.982;7.834;2024-03-17T00:04:48;5.03;;;1.90;;
2546;SDS011;1283;47.982;7.834;2024-03-17T00:07:14;3.72;;;1.60;;
2546;SDS011;1283;47.982;7.834;2024-03-17T00:09:40;5.93;;;1.80;;
2546;SDS011;1283;47.982;7.834;2024-03-17T00:12:07;5.10;;;2.10;;
2546;SDS011;1283;47.982;7.834;2024-03-17T00:14:34;4.22;;;1.90;;
2546;SDS011;1283;47.982;7.834;2024-03-17T00:17:00;5.45;;;1.90;;
2546;SDS011;1283;47.982;7.834;2024-03-17T00:19:27;10.02;;;1.90;;
2546;SDS011;1283;47.982;7.834;2024-03-17T00:21:54;4.90;;;1.67;;
2546;SDS011;1283;47.982;7.834;2024-03-17T00:24:20;6.63;;;1.80;;
2546;SDS011;1283;47.982;7.834;2024-03-17T00:26:46;5.30;;;2.00;;
2546;SDS011;1283;47.982;7.834;2024-03-17T00:29:12;6.05;;;2.00;;
2546;SDS011;1283;47.982;7.834;2024-03-17T00:31:39;5.75;;;2.00;;
2546;SDS011;1283;47.982;7.834;2024-03-17T00:34:06;6.88;;;1.92;;
2546;SDS011;1283;47.982;7.834;2024-03-17T00:36:31;6.50;;;2.10;;
2546;SDS011;1283;47.982;7.834;2024-03-17T00:38:59;9.02;;;1.80;;
2546;SDS011;1283;47.982;7.834;2024-03-17T00:41:25;6.88;;;2.10;;
2546;SDS011;1283;47.982;7.834;2024-03-17T00:43:52;3.72;;;1.98;;
2546;SDS011;1283;47.982;7.834;2024-03-17T00:46:18;5.82;;;2.17;;
2546;SDS011;1283;47.982;7.834;2024-03-17T00:48:46;4.30;;;2.13;;
2546;SDS011;1283;47.982;7.834;2024-03-17T00:51:12;5.47;;;1.92;;
2546;SDS011;1283;47.982;7.834;2024-03-17T00:53:39;5.18;;;2.60;;
2546;SDS011;1283;47.982;7.834;2024-03-17T00:56:06;4.90;;;2.05;;
2546;SDS011;1283;47.982;7.834;2024-03-17T00:58:33;10.07;;;2.38;;
2546;SDS011;1283;47.982;7.834;2024-03-17T01:00:58;4.18;;;1.80;;
2546;SDS011;1283;47.982;7.834;2024-03-17T01:03:25;4.07;;;1.92;;
2546;SDS011;1283;47.982;7.834;2024-03-17T01:05:51;3.22;;;1.75;;
2546;SDS011;1283;47.982;7.834;2024-03-17T01:08:18;4.00;;;1.60;;
2546;SDS011;1283;47.982;7.834;2024-03-17T01:10:45;5.68;;;1.60;;
2546;SDS011;1283;47.982;7.834;2024-03-17T01:13:16;5.05;;;1.65;;
2546;SDS011;1283;47.982;7.834;2024-03-17T01:15:42;6.68;;;1.90;;
2546;SDS011;1283;47.982;7.834;2024-03-17T01:18:09;5.22;;;1.70;;
2546;SDS011;1283;47.982;7.834;2024-03-17T01:20:35;4.05;;;1.90;;
2546;SDS011;1283;47.982;7.834;2024-03-17T01:23:02;3.20;;;1.70;;
2546;SDS011;1283;47.982;7.834;2024-03-17T01:25:28;2.75;;;1.40;;
2546;SDS011;1283;47.982;7.834;2024-03-17T01:27:56;6.22;;;2.00;;
2546;SDS011;1283;47.982;7.834;2024-03-17T01:30:22;4.40;;;1.70;;
2546;SDS011;1283;47.982;7.834;2024-03-17T01:32:49;4.20;;;2.00;;
2546;SDS011;1283;47.982;7.834;2024-03-17T01:35:15;3.30;;;1.90;;
2546;SDS011;1283;47.982;7.834;2024-03-17T01:37:41;3.95;;;1.85;;
2546;SDS011;1283;47.982;7.834;2024-03-17T01:40:07;4.57;;;1.77;;
2546;SDS011;1283;47.982;7.834;2024-03-17T01:42:35;3.38;;;1.90;;
2546;SDS011;1283;47.982;7.834;2024-03-17T01:45:00;3.95;;;1.95;;
2546;SDS011;1283;47.982;7.834;2024-03-17T01:47:28;5.50;;;1.75;;
2546;SDS011;1283;47.982;7.834;2024-03-17T01:49:54;2.45;;;1.33;;
2546;SDS011;1283;47.982;7.834;2024-03-17T01:52:20;3.15;;;1.55;;
2546;SDS011;1283;47.982;7.834;2024-03-17T01:54:47;5.25;;;2.00;;
2546;SDS011;1283;47.982;7.834;2024-03-17T01:57:13;3.85;;;1.60;;
2546;SDS011;1283;47.982;7.834;2024-03-17T01:59:39;5.88;;;1.80;;
2546;SDS011;1283;47.982;7.834;2024-03-17T02:02:05;5.85;;;2.67;;
2546;SDS011;1283;47.982;7.834;2024-03-17T02:04:33;4.72;;;1.50;;
2546;SDS011;1283;47.982;7.834;2024-03-17T02:06:59;5.25;;;1.95;;
2546;SDS011;1283;47.982;7.834;2024-03-17T02:09:26;5.63;;;1.75;;
2546;SDS011;1283;47.982;7.834;2024-03-17T02:11:52;2.25;;;1.48;;
2546;SDS011;1283;47.982;7.834;2024-03-17T02:14:19;7.20;;;2.20;;
2546;SDS011;1283;47.982;7.834;2024-03-17T02:16:46;6.50;;;2.38;;
2546;SDS011;1283;47.982;7.834;2024-03-17T02:19:13;8.00;;;2.35;;
2546;SDS011;1283;47.982;7.834;2024-03-17T02:21:40;4.88;;;2.00;;
2546;SDS011;1283;47.982;7.834;2024-03-17T02:24:09;7.38;;;1.88;;
2546;SDS011;1283;47.982;7.834;2024-03-17T02:26:34;11.70;;;2.30;;
2546;SDS011;1283;47.982;7.834;2024-03-17T02:29:03;7.38;;;1.73;;
2546;SDS011;1283;47.982;7.834;2024-03-17T02:33:55;7.20;;;1.77;;
2546;SDS011;1283;47.982;7.834;2024-03-17T02:36:21;6.75;;;1.90;;
2546;SDS011;1283;47.982;7.834;2024-03-17T02:38:47;6.38;;;1.73;;
2546;SDS011;1283;47.982;7.834;2024-03-17T02:41:32;3.80;;;1.38;;
2546;SDS011;1283;47.982;7.834;2024-03-17T02:43:59;9.00;;;1.77;;
2546;SDS011;1283;47.982;7.834;2024-03-17T02:46:25;5.78;;;1.48;;
2546;SDS011;1283;47.982;7.834;2024-03-17T02:48:52;3.15;;;1.20;;
2546;SDS011;1283;47.982;7.834;2024-03-17T02:51:21;2.40;;;1.30;;
2546;SDS011;1283;47.982;7.834;2024-03-17T02:53:48;4.32;;;1.27;;
2546;SDS011;1283;47.982;7.834;2024-03-17T02:56:15;6.82;;;1.67;;
2546;SDS011;1283;47.982;7.834;2024-03-17T02:58:44;3.20;;;1.50;;
2546;SDS011;1283;47.982;7.834;2024-03-17T03:01:12;6.35;;;1.73;;
2546;SDS011;1283;47.982;7.834;2024-03-17T03:03:39;5.97;;;1.80;;
2546;SDS011;1283;47.982;7.834;2024-03-17T03:06:06;8.82;;;2.08;;
2546;SDS011;1283;47.982;7.834;2024-03-17T03:08:34;3.53;;;1.50;;
2546;SDS011;1283;47.982;7.834;2024-03-17T03:11:01;9.35;;;1.90;;
2546;SDS011;1283;47.982;7.834;2024-03-17T03:13:29;9.50;;;1.67;;
2546;SDS011;1283;47.982;7.834;2024-03-17T03:15:56;7.97;;;1.90;;
2546;SDS011;1283;47.982;7.834;2024-03-17T03:18:23;5.63;;;1.45;;
2546;SDS011;1283;47.982;7.834;2024-03-17T03:20:50;3.50;;;1.50;;
2546;SDS011;1283;47.982;7.834;2024-03-17T03:23:17;4.35;;;1.10;;
2546;SDS011;1283;47.982;7.834;2024-03-17T03:25:44;6.80;;;1.40;;
2546;SDS011;1283;47.982;7.834;2024-03-17T03:28:11;10.70;;;1.95;;
2546;SDS011;1283;47.982;7.834;2024-03-17T03:30:38;5.03;;;1.52;;
2546;SDS011;1283;47.982;7.834;2024-03-17T03:33:05;8.98;;;2.38;;
2546;SDS011;1283;47.982;7.834;2024-03-17T03:35:32;6.25;;;1.80;;
2546;SDS011;1283;47.982;7.834;2024-03-17T03:37:59;3.55;;;1.70;;
2546;SDS011;1283;47.982;7.834;2024-03-17T03:40:27;11.82;;;2.35;;
2546;SDS011;1283;47.982;7.834;2024-03-17T03:42:54;10.27;;;2.63;;
2546;SDS011;1283;47.982;7.834;2024-03-17T03:45:21;6.13;;;2.85;;
2546;SDS011;1283;47.982;7.834;2024-03-17T03:47:48;8.43;;;2.58;;
2546;SDS011;1283;47.982;7.834;2024-03-17T03:50:19;6.68;;;2.03;;
2546;SDS011;1283;47.982;7.834;2024-03-17T03:52:46;9.75;;;2.20;;
2546;SDS011;1283;47.982;7.834;2024-03-17T03:55:12;12.70;;;2.45;;
2546;SDS011;1283;47.982;7.834;2024-03-17T03:57:40;6.30;;;2.30;;
2546;SDS011;1283;47.982;7.834;2024-03-17T04:00:07;7.72;;;2.58;;
2546;SDS011;1283;47.982;7.834;2024-03-17T04:02:37;6.40;;;2.55;;
2546;SDS011;1283;47.982;7.834;2024-03-17T04:05:04;6.25;;;2.38;;
2546;SDS011;1283;47.982;7.834;2024-03-17T04:07:32;9.45;;;2.47;;
2546;SDS011;1283;47.982;7.834;2024-03-17T04:09:59;8.73;;;2.70;;
2546;SDS011;1283;47.982;7.834;2024-03-17T04:12:25;12.90;;;2.58;;
2546;SDS011;1283;47.982;7.834;2024-03-17T04:14:53;11.52;;;2.25;;
2546;SDS011;1283;47.982;7.834;2024-03-17T04:17:20;7.47;;;2.40;;
2546;SDS011;1283;47.982;7.834;2024-03-17T04:19:46;9.32;;;3.10;;
2546;SDS011;1283;47.982;7.834;2024-03-17T04:22:13;8.40;;;2.60;;
2546;SDS011;1283;47.982;7.834;2024-03-17T04:24:41;11.80;;;3.25;;
2546;SDS011;1283;47.982;7.834;2024-03-17T04:27:08;7.80;;;3.13;;
2546;SDS011;1283;47.982;7.834;2024-03-17T04:29:34;10.60;;;2.78;;
2546;SDS011;1283;47.982;7.834;2024-03-17T04:32:01;6.95;;;2.42;;
2546;SDS011;1283;47.982;7.834;2024-03-17T04:34:27;12.10;;;3.80;;
2546;SDS011;1283;47.982;7.834;2024-03-17T04:36:54;9.27;;;2.60;;
2546;SDS011;1283;47.982;7.834;2024-03-17T04:39:20;6.85;;;2.55;;
2546;SDS011;1283;47.982;7.834;2024-03-17T04:41:48;10.93;;;2.72;;
2546;SDS011;1283;47.982;7.834;2024-03-17T04:44:15;13.48;;;3.42;;
2546;SDS011;1283;47.982;7.834;2024-03-17T04:46:42;8.65;;;2.75;;
2546;SDS011;1283;47.982;7.834;2024-03-17T04:49:08;17.10;;;4.53;;
2546;SDS011;1283;47.982;7.834;2024-03-17T04:51:35;19.35;;;6.75;;
2546;SDS011;1283;47.982;7.834;2024-03-17T04:54:01;26.15;;;8.18;;
2546;SDS011;1283;47.982;7.834;2024-03-17T04:56:28;29.52;;;7.68;;
2546;SDS011;1283;47.982;7.834;2024-03-17T04:58:56;19.17;;;4.53;;
2546;SDS011;1283;47.982;7.834;2024-03-17T05:01:22;12.05;;;4.43;;
2546;SDS011;1283;47.982;7.834;2024-03-17T05:03:50;18.20;;;4.38;;
2546;SDS011;1283;47.982;7.834;2024-03-17T05:06:17;16.08;;;3.90;;
2546;SDS011;1283;47.982;7.834;2024-03-17T05:08:43;14.93;;;4.47;;
2546;SDS011;1283;47.982;7.834;2024-03-17T05:11:10;17.45;;;4.28;;
2546;SDS011;1283;47.982;7.834;2024-03-17T05:13:37;9.93;;;3.67;;
2546;SDS011;1283;47.982;7.834;2024-03-17T05:16:06;15.43;;;5.60;;
2546;SDS011;1283;47.982;7.834;2024-03-17T05:18:32;16.08;;;4.97;;
2546;SDS011;1283;47.982;7.834;2024-03-17T05:20:59;13.43;;;2.90;;
2546;SDS011;1283;47.982;7.834;2024-03-17T05:23:26;9.27;;;2.80;;
2546;SDS011;1283;47.982;7.834;2024-03-17T05:25:53;11.98;;;2.50;;
2546;SDS011;1283;47.982;7.834;2024-03-17T05:28:20;9.02;;;2.92;;
2546;SDS011;1283;47.982;7.834;2024-03-17T05:30:46;7.78;;;2.90;;
2546;SDS011;1283;47.982;7.834;2024-03-17T05:33:14;5.95;;;2.60;;
2546;SDS011;1283;47.982;7.834;2024-03-17T05:35:41;6.60;;;2.63;;
2546;SDS011;1283;47.982;7.834;2024-03-17T05:38:14;7.22;;;1.95;;
2546;SDS011;1283;47.982;7.834;2024-03-17T05:40:41;8.32;;;2.50;;
2546;SDS011;1283;47.982;7.834;2024-03-17T05:43:07;4.07;;;1.60;;
2546;SDS011;1283;47.982;7.834;2024-03-17T05:45:34;7.32;;;1.88;;
2546;SDS011;1283;47.982;7.834;2024-03-17T05:48:00;4.93;;;1.75;;
2546;SDS011;1283;47.982;7.834;2024-03-17T05:50:31;12.15;;;1.80;;
2546;SDS011;1283;47.982;7.834;2024-03-17T05:52:58;11.90;;;1.98;;
2546;SDS011;1283;47.982;7.834;2024-03-17T05:55:24;10.88;;;2.88;;
2546;SDS011;1283;47.982;7.834;2024-03-17T05:57:51;5.20;;;1.73;;
2546;SDS011;1283;47.982;7.834;2024-03-17T06:00:19;6.55;;;1.90;;
2546;SDS011;1283;47.982;7.834;2024-03-17T06:02:45;7.65;;;1.90;;
2546;SDS011;1283;47.982;7.834;2024-03-17T06:05:12;9.15;;;2.13;;
2546;SDS011;1283;47.982;7.834;2024-03-17T06:07:40;4.38;;;1.73;;
2546;SDS011;1283;47.982;7.834;2024-03-17T06:10:07;7.55;;;2.13;;
2546;SDS011;1283;47.982;7.834;2024-03-17T06:12:34;2.95;;;1.45;;
2546;SDS011;1283;47.982;7.834;2024-03-17T06:15:02;7.72;;;1.40;;
2546;SDS011;1283;47.982;7.834;2024-03-17T06:17:29;6.78;;;1.70;;
2546;SDS011;1283;47.982;7.834;2024-03-17T06:19:55;6.13;;;1.55;;
2546;SDS011;1283;47.982;7.834;2024-03-17T06:22:22;3.80;;;1.65;;
2546;SDS011;1283;47.982;7.834;2024-03-17T06:24:50;5.32;;;1.63;;
2546;SDS011;1283;47.982;7.834;2024-03-17T06:27:16;4.22;;;1.67;;
2546;SDS011;1283;47.982;7.834;2024-03-17T06:29:43;6.05;;;1.85;;
2546;SDS011;1283;47.982;7.834;2024-03-17T06:32:10;4.80;;;1.88;;
2546;SDS011;1283;47.982;7.834;2024-03-17T06:34:37;4.97;;;1.58;;
2546;SDS011;1283;47.982;7.834;2024-03-17T06:37:04;8.13;;;1.80;;
2546;SDS011;1283;47.982;7.834;2024-03-17T06:39:30;4.22;;;1.83;;
2546;SDS011;1283;47.982;7.834;2024-03-17T06:41:58;5.25;;;1.50;;
2546;SDS011;1283;47.982;7.834;2024-03-17T06:44:25;4.65;;;1.77;;
2546;SDS011;1283;47.982;7.834;2024-03-17T06:46:54;5.20;;;1.40;;
2546;SDS011;1283;47.982;7.834;2024-03-17T06:49:21;5.72;;;1.50;;
2546;SDS011;1283;47.982;7.834;2024-03-17T06:51:47;5.22;;;1.50;;
2546;SDS011;1283;47.982;7.834;2024-03-17T06:54:14;10.63;;;1.77;;
2546;SDS011;1283;47.982;7.834;2024-03-17T06:56:40;4.22;;;1.42;;
2546;SDS011;1283;47.982;7.834;2024-03-17T06:59:08;4.22;;;1.33;;
2546;SDS011;1283;47.982;7.834;2024-03-17T07:01:35;3.95;;;1.20;;
2546;SDS011;1283;47.982;7.834;2024-03-17T07:04:01;4.50;;;1.30;;
2546;SDS011;1283;47.982;7.834;2024-03-17T07:06:28;4.50;;;1.27;;
2546;SDS011;1283;47.982;7.834;2024-03-17T07:08:54;3.28;;;1.38;;
2546;SDS011;1283;47.982;7.834;2024-03-17T07:11:21;7.95;;;1.50;;
2546;SDS011;1283;47.982;7.834;2024-03-17T07:13:48;5.10;;;1.30;;
2546;SDS011;1283;47.982;7.834;2024-03-17T07:16:17;6.28;;;1.63;;
2546;SDS011;1283;47.982;7.834;2024-03-17T07:18:44;5.50;;;1.30;;
2546;SDS011;1283;47.982;7.834;2024-03-17T07:21:10;4.00;;;1.45;;
2546;SDS011;1283;47.982;7.834;2024-03-17T07:23:36;3.50;;;1.77;;
2546;SDS011;1283;47.982;7.834;2024-03-17T07:26:03;4.40;;;1.20;;
2546;SDS011;1283;47.982;7.834;2024-03-17T07:28:31;8.30;;;1.90;;
2546;SDS011;1283;47.982;7.834;2024-03-17T07:30:58;3.88;;;1.00;;
2546;SDS011;1283;47.982;7.834;2024-03-17T07:33:28;7.20;;;1.23;;
2546;SDS011;1283;47.982;7.834;2024-03-17T07:35:55;8.70;;;1.40;;
2546;SDS011;1283;47.982;7.834;2024-03-17T07:38:25;4.05;;;1.40;;
2546;SDS011;1283;47.982;7.834;2024-03-17T07:40:55;6.68;;;1.60;;
2546;SDS011;1283;47.982;7.834;2024-03-17T07:43:24;4.78;;;1.33;;
2546;SDS011;1283;47.982;7.834;2024-03-17T07:45:57;3.67;;;1.30;;
2546;SDS011;1283;47.982;7.834;2024-03-17T07:48:24;6.18;;;2.25;;
2546;SDS011;1283;47.982;7.834;2024-03-17T07:50:54;3.42;;;1.55;;
2546;SDS011;1283;47.982;7.834;2024-03-17T07:53:21;4.47;;;1.15;;
2546;SDS011;1283;47.982;7.834;2024-03-17T07:55:56;5.28;;;1.35;;
2546;SDS011;1283;47.982;7.834;2024-03-17T07:58:23;4.30;;;1.30;;
2546;SDS011;1283;47.982;7.834;2024-03-17T08:00:50;4.15;;;1.73;;
2546;SDS011;1283;47.982;7.834;2024-03-17T08:03:17;4.22;;;1.65;;
2546;SDS011;1283;47.982;7.834;2024-03-17T08:05:47;5.53;;;1.85;;
2546;SDS011;1283;47.982;7.834;2024-03-17T08:08:15;6.53;;;1.50;;
2546;SDS011;1283;47.982;7.834;2024-03-17T08:10:42;4.68;;;1.50;;
2546;SDS011;1283;47.982;7.834;2024-03-17T08:13:08;4.50;;;1.25;;
2546;SDS011;1283;47.982;7.834;2024-03-17T08:15:35;4.18;;;1.70;;
2546;SDS011;1283;47.982;7.834;2024-03-17T08:18:01;3.85;;;1.40;;
2546;SDS011;1283;47.982;7.834;2024-03-17T08:20:29;6.45;;;1.90;;
2546;SDS011;1283;47.982;7.834;2024-03-17T08:22:55;7.13;;;2.53;;
2546;SDS011;1283;47.982;7.834;2024-03-17T08:25:23;11.52;;;3.22;;
2546;SDS011;1283;47.982;7.834;2024-03-17T08:27:49;7.55;;;3.58;;
2546;SDS011;1283;47.982;7.834;2024-03-17T08:30:16;6.97;;;3.70;;
2546;SDS011;1283;47.982;7.834;2024-03-17T08:32:42;9.05;;;3.42;;
2546;SDS011;1283;47.982;7.834;2024-03-17T08:35:09;7.60;;;3.78;;
2546;SDS011;1283;47.982;7.834;2024-03-17T08:37:35;8.13;;;3.70;;
2546;SDS011;1283;47.982;7.834;2024-03-17T08:40:02;6.13;;;3.72;;
2546;SDS011;1283;47.982;7.834;2024-03-17T08:42:32;10.23;;;3.97;;
2546;SDS011;1283;47.982;7.834;2024-03-17T08:44:59;11.05;;;4.00;;
2546;SDS011;1283;47.982;7.834;2024-03-17T08:47:25;12.25;;;3.78;;
2546;SDS011;1283;47.982;7.834;2024-03-17T08:49:52;8.23;;;4.32;;
2546;SDS011;1283;47.982;7.834;2024-03-17T08:52:18;8.40;;;4.30;;
2546;SDS011;1283;47.982;7.834;2024-03-17T08:54:45;7.38;;;3.95;;
2546;SDS011;1283;47.982;7.834;2024-03-17T08:57:12;9.45;;;3.95;;
2546;SDS011;1283;47.982;7.834;2024-03-17T08:59:40;9.02;;;4.00;;
2546;SDS011;1283;47.982;7.834;2024-03-17T09:02:07;11.23;;;5.05;;
2546;SDS011;1283;47.982;7.834;2024-03-17T09:04:37;5.30;;;3.58;;
2546;SDS011;1283;47.982;7.834;2024-03-17T09:07:04;7.22;;;3.65;;
2546;SDS011;1283;47.982;7.834;2024-03-17T09:09:31;6.78;;;3.65;;
2546;SDS011;1283;47.982;7.834;2024-03-17T09:11:57;7.63;;;3.47;;
2546;SDS011;1283;47.982;7.834;2024-03-17T09:14:24;7.00;;;3.80;;
2546;SDS011;1283;47.982;7.834;2024-03-17T09:16:52;7.75;;;3.53;;
2546;SDS011;1283;47.982;7.834;2024-03-17T09:19:18;8.95;;;3.90;;
2546;SDS011;1283;47.982;7.834;2024-03-17T09:21:45;8.65;;;4.00;;
2546;SDS011;1283;47.982;7.834;2024-03-17T09:24:11;7.20;;;3.78;;
2546;SDS011;1283;47.982;7.834;2024-03-17T09:26:37;11.52;;;4.72;;
2546;SDS011;1283;47.982;7.834;2024-03-17T09:29:05;10.68;;;4.07;;
2546;SDS011;1283;47.982;7.834;2024-03-17T09:31:31;7.18;;;3.90;;
2546;SDS011;1283;47.982;7.834;2024-03-17T09:34:01;10.05;;;4.00;;
2546;SDS011;1283;47.982;7.834;2024-03-17T09:36:28;6.80;;;4.28;;
2546;SDS011;1283;47.982;7.834;2024-03-17T09:38:54;13.23;;;3.63;;
2546;SDS011;1283;47.982;7.834;2024-03-17T09:41:21;7.25;;;4.22;;
2546;SDS011;1283;47.982;7.834;2024-03-17T09:43:49;10.88;;;4.32;;
2546;SDS011;1283;47.982;7.834;2024-03-17T09:46:16;8.55;;;3.88;;
2546;SDS011;1283;47.982;7.834;2024-03-17T09:48:43;14.05;;;4.30;;
2546;SDS011;1283;47.982;7.834;2024-03-17T09:51:14;9.02;;;4.55;;
2546;SDS011;1283;47.982;7.834;2024-03-17T09:53:43;10.43;;;4.63;;
2546;SDS011;1283;47.982;7.834;2024-03-17T09:56:10;8.27;;;3.70;;
2546;SDS011;1283;47.982;7.834;2024-03-17T09:58:37;10.27;;;3.65;;
2546;SDS011;1283;47.982;7.834;2024-03-17T10:01:04;12.25;;;5.28;;
2546;SDS011;1283;47.982;7.834;2024-03-17T10:03:41;11.45;;;4.38;;
2546;SDS011;1283;47.982;7.834;2024-03-17T10:06:09;13.00;;;4.47;;
2546;SDS011;1283;47.982;7.834;2024-03-17T10:08:40;8.93;;;4.25;;
2546;SDS011;1283;47.982;7.834;2024-03-17T10:11:07;11.85;;;4.25;;
2546;SDS011;1283;47.982;7.834;2024-03-17T10:13:34;10.13;;;4.38;;
2546;SDS011;1283;47.982;7.834;2024-03-17T10:16:00;6.28;;;4.15;;
2546;SDS011;1283;47.982;7.834;2024-03-17T10:18:27;11.98;;;4.53;;
2546;SDS011;1283;47.982;7.834;2024-03-17T10:20:53;11.63;;;5.45;;
2546;SDS011;1283;47.982;7.834;2024-03-17T10:23:23;7.97;;;3.97;;
2546;SDS011;1283;47.982;7.834;2024-03-17T10:25:49;11.73;;;4.63;;
2546;SDS011;1283;47.982;7.834;2024-03-17T10:28:17;9.77;;;4.13;;
2546;SDS011;1283;47.982;7.834;2024-03-17T10:30:56;12.45;;;4.63;;
2546;SDS011;1283;47.982;7.834;2024-03-17T10:33:24;14.82;;;6.25;;
2546;SDS011;1283;47.982;7.834;2024-03-17T10:35:52;11.93;;;4.72;;
2546;SDS011;1283;47.982;7.834;2024-03-17T10:38:26;13.88;;;4.95;;
2546;SDS011;1283;47.982;7.834;2024-03-17T10:40:53;10.75;;;4.70;;
2546;SDS011;1283;47.982;7.834;2024-03-17T10:43:19;11.38;;;4.88;;
2546;SDS011;1283;47.982;7.834;2024-03-17T10:45:49;12.85;;;4.45;;
2546;SDS011;1283;47.982;7.834;2024-03-17T10:48:19;8.15;;;4.22;;
2546;SDS011;1283;47.982;7.834;2024-03-17T10:50:46;10.48;;;4.53;;
2546;SDS011;1283;47.982;7.834;2024-03-17T10:53:14;11.35;;;4.47;;
2546;SDS011;1283;47.982;7.834;2024-03-17T10:55:53;10.07;;;4.30;;
2546;SDS011;1283;47.982;7.834;2024-03-17T10:58:29;7.68;;;4.50;;
2546;SDS011;1283;47.982;7.834;2024-03-17T11:00:59;8.25;;;4.45;;
2546;SDS011;1283;47.982;7.834;2024-03-17T11:03:28;8.63;;;4.50;;
2546;SDS011;1283;47.982;7.834;2024-03-17T11:05:55;11.85;;;4.75;;
2546;SDS011;1283;47.982;7.834;2024-03-17T11:08:22;12.25;;;4.30;;
2546;SDS011;1283;47.982;7.834;2024-03-17T11:10:49;8.43;;;5.25;;
2546;SDS011;1283;47.982;7.834;2024-03-17T11:13:24;11.20;;;4.57;;
2546;SDS011;1283;47.982;7.834;2024-03-17T11:15:51;7.90;;;4.78;;
2546;SDS011;1283;47.982;7.834;2024-03-17T11:18:28;9.48;;;4.60;;
2546;SDS011;1283;47.982;7.834;2024-03-17T11:20:59;11.98;;;5.35;;
2546;SDS011;1283;47.982;7.834;2024-03-17T11:23:32;9.02;;;4.65;;
2546;SDS011;1283;47.982;7.834;2024-03-17T11:25:59;9.68;;;4.78;;
2546;SDS011;1283;47.982;7.834;2024-03-17T11:28:45;9.02;;;5.55;;
2546;SDS011;1283;47.982;7.834;2024-03-17T11:31:31;9.63;;;4.95;;
2546;SDS011;1283;47.982;7.834;2024-03-17T11:34:00;12.90;;;5.22;;
2546;SDS011;1283;47.982;7.834;2024-03-17T11:36:32;10.68;;;5.18;;
2546;SDS011;1283;47.982;7.834;2024-03-17T11:39:02;8.88;;;4.68;;
2546;SDS011;1283;47.982;7.834;2024-03-17T11:41:35;7.43;;;4.28;;
2546;SDS011;1283;47.982;7.834;2024-03-17T11:44:14;7.65;;;4.68;;
2546;SDS011;1283;47.982;7.834;2024-03-17T11:46:50;15.37;;;6.33;;
2546;SDS011;1283;47.982;7.834;2024-03-17T11:49:16;10.25;;;5.45;;
2546;SDS011;1283;47.982;7.834;2024-03-17T11:51:45;10.32;;;5.13;;
2546;SDS011;1283;47.982;7.834;2024-03-17T11:54:13;11.13;;;5.47;;
2546;SDS011;1283;47.982;7.834;2024-03-17T11:56:42;13.02;;;5.00;;
2546;SDS011;1283;47.982;7.834;2024-03-17T11:59:08;11.52;;;4.60;;
2546;SDS011;1283;47.982;7.834;2024-03-17T12:01:36;13.60;;;4.85;;
2546;SDS011;1283;47.982;7.834;2024-03-17T12:04:03;14.98;;;5.10;;
2546;SDS011;1283;47.982;7.834;2024-03-17T12:06:30;11.05;;;5.45;;
2546;SDS011;1283;47.982;7.834;2024-03-17T12:09:07;13.07;;;6.07;;
2546;SDS011;1283;47.982;7.834;2024-03-17T12:11:34;15.00;;;5.35;;
2546;SDS011;1283;47.982;7.834;2024-03-17T12:14:07;9.93;;;5.45;;
2546;SDS011;1283;47.982;7.834;2024-03-17T12:16:37;11.05;;;5.88;;
2546;SDS011;1283;47.982;7.834;2024-03-17T12:19:05;10.73;;;5.15;;
2546;SDS011;1283;47.982;7.834;2024-03-17T12:21:32;9.95;;;5.45;;
2546;SDS011;1283;47.982;7.834;2024-03-17T12:24:00;11.25;;;5.65;;
2546;SDS011;1283;47.982;7.834;2024-03-17T12:26:26;14.20;;;4.82;;
2546;SDS011;1283;47.982;7.834;2024-03-17T12:28:52;11.60;;;6.03;;
2546;SDS011;1283;47.982;7.834;2024-03-17T12:31:18;11.95;;;5.43;;
2546;SDS011;1283;47.982;7.834;2024-03-17T12:33:45;8.18;;;5.38;;
2546;SDS011;1283;47.982;7.834;2024-03-17T12:36:12;15.15;;;6.40;;
2546;SDS011;1283;47.982;7.834;2024-03-17T12:38:38;12.55;;;5.05;;
2546;SDS011;1283;47.982;7.834;2024-03-17T12:41:04;8.95;;;5.05;;
2546;SDS011;1283;47.982;7.834;2024-03-17T12:43:34;11.68;;;6.35;;
2546;SDS011;1283;47.982;7.834;2024-03-17T12:46:02;10.77;;;5.47;;
2546;SDS011;1283;47.982;7.834;2024-03-17T12:48:28;13.88;;;5.30;;
2546;SDS011;1283;47.982;7.834;2024-03-17T12:50:56;10.38;;;5.57;;
2546;SDS011;1283;47.982;7.834;2024-03-17T12:53:21;14.73;;;5.57;;
2546;SDS011;1283;47.982;7.834;2024-03-17T12:55:52;10.10;;;5.80;;
2546;SDS011;1283;47.982;7.834;2024-03-17T12:58:36;13.82;;;5.93;;
2546;SDS011;1283;47.982;7.834;2024-03-17T13:01:20;10.18;;;5.90;;
2546;SDS011;1283;47.982;7.834;2024-03-17T13:03:46;10.68;;;5.43;;
2546;SDS011;1283;47.982;7.834;2024-03-17T13:06:22;10.48;;;5.55;;
2546;SDS011;1283;47.982;7.834;2024-03-17T13:08:50;10.90;;;5.68;;
2546;SDS011;1283;47.982;7.834;2024-03-17T13:11:16;11.27;;;5.55;;
2546;SDS011;1283;47.982;7.834;2024-03-17T13:13:42;11.15;;;5.55;;
2546;SDS011;1283;47.982;7.834;2024-03-17T13:16:09;10.30;;;5.28;;
2546;SDS011;1283;47.982;7.834;2024-03-17T13:18:37;14.65;;;6.00;;
2546;SDS011;1283;47.982;7.834;2024-03-17T13:21:04;13.07;;;5.13;;
2546;SDS011;1283;47.982;7.834;2024-03-17T13:23:32;15.98;;;5.22;;
2546;SDS011;1283;47.982;7.834;2024-03-17T13:25:59;11.00;;;5.18;;
2546;SDS011;1283;47.982;7.834;2024-03-17T13:28:26;11.13;;;4.97;;
2546;SDS011;1283;47.982;7.834;2024-03-17T13:30:53;13.30;;;5.20;;
2546;SDS011;1283;47.982;7.834;2024-03-17T13:33:19;9.30;;;4.80;;
2546;SDS011;1283;47.982;7.834;2024-03-17T13:35:46;16.85;;;5.70;;
2546;SDS011;1283;47.982;7.834;2024-03-17T13:38:12;10.45;;;4.88;;
2546;SDS011;1283;47.982;7.834;2024-03-17T13:40:40;9.95;;;4.32;;
2546;SDS011;1283;47.982;7.834;2024-03-17T13:43:07;9.60;;;4.60;;
2546;SDS011;1283;47.982;7.834;2024-03-17T13:45:37;13.10;;;5.03;;
2546;SDS011;1283;47.982;7.834;2024-03-17T13:48:05;8.35;;;4.60;;
2546;SDS011;1283;47.982;7.834;2024-03-17T13:50:34;9.98;;;4.25;;
2546;SDS011;1283;47.982;7.834;2024-03-17T13:53:00;13.23;;;4.60;;
2546;SDS011;1283;47.982;7.834;2024-03-17T13:55:28;15.65;;;5.50;;
2546;SDS011;1283;47.982;7.834;2024-03-17T13:57:56;10.93;;;5.30;;
2546;SDS011;1283;47.982;7.834;2024-03-17T14:00:24;8.98;;;6.43;;
2546;SDS011;1283;47.982;7.834;2024-03-17T14:02:52;9.15;;;4.82;;
2546;SDS011;1283;47.982;7.834;2024-03-17T14:05:19;12.02;;;5.93;;
2546;SDS011;1283;47.982;7.834;2024-03-17T14:07:47;15.52;;;5.75;;
2546;SDS011;1283;47.982;7.834;2024-03-17T14:10:14;10.07;;;5.38;;
2546;SDS011;1283;47.982;7.834;2024-03-17T14:12:41;15.80;;;6.18;;
2546;SDS011;1283;47.982;7.834;2024-03-17T14:15:10;14.18;;;6.22;;
2546;SDS011;1283;47.982;7.834;2024-03-17T14:17:37;12.75;;;5.85;;
2546;SDS011;1283;47.982;7.834;2024-03-17T14:20:04;9.40;;;5.82;;
2546;SDS011;1283;47.982;7.834;2024-03-17T14:22:34;15.02;;;6.07;;
2546;SDS011;1283;47.982;7.834;2024-03-17T14:25:01;11.88;;;5.70;;
2546;SDS011;1283;47.982;7.834;2024-03-17T14:27:27;13.18;;;5.28;;
2546;SDS011;1283;47.982;7.834;2024-03-17T14:29:54;17.58;;;6.35;;
2546;SDS011;1283;47.982;7.834;2024-03-17T14:32:21;11.77;;;5.18;;
2546;SDS011;1283;47.982;7.834;2024-03-17T14:34:48;14.60;;;5.50;;
2546;SDS011;1283;47.982;7.834;2024-03-17T14:37:15;15.95;;;5.40;;
2546;SDS011;1283;47.982;7.834;2024-03-17T14:39:41;15.63;;;6.07;;
2546;SDS011;1283;47.982;7.834;2024-03-17T14:42:09;10.88;;;5.30;;
2546;SDS011;1283;47.982;7.834;2024-03-17T14:44:35;13.25;;;5.25;;
2546;SDS011;1283;47.982;7.834;2024-03-17T14:47:02;11.77;;;5.18;;
2546;SDS011;1283;47.982;7.834;2024-03-17T14:49:31;14.27;;;6.22;;
2546;SDS011;1283;47.982;7.834;2024-03-17T14:51:57;13.55;;;4.85;;
2546;SDS011;1283;47.982;7.834;2024-03-17T14:54:22;9.45;;;4.32;;
2546;SDS011;1283;47.982;7.834;2024-03-17T14:56:49;12.10;;;4.90;;
2546;SDS011;1283;47.982;7.834;2024-03-17T14:59:16;10.30;;;5.70;;
2546;SDS011;1283;47.982;7.834;2024-03-17T15:01:45;12.88;;;6.10;;
2546;SDS011;1283;47.982;7.834;2024-03-17T15:04:12;16.75;;;6.05;;
2546;SDS011;1283;47.982;7.834;2024-03-17T15:06:40;13.80;;;5.75;;
2546;SDS011;1283;47.982;7.834;2024-03-17T15:09:08;12.65;;;5.15;;
2546;SDS011;1283;47.982;7.834;2024-03-17T15:11:34;12.55;;;5.20;;
2546;SDS011;1283;47.982;7.834;2024-03-17T15:14:01;11.95;;;5.13;;
2546;SDS011;1283;47.982;7.834;2024-03-17T15:16:29;8.73;;;4.95;;